createdAt,value
2018-08-25T00:01:38.466Z,98187.00
2018-08-25T00:04:06.886Z,98183.00
2018-08-25T00:06:35.304Z,98188.00
2018-08-25T00:09:04.239Z,98175.00
2018-08-25T00:11:32.672Z,98177.00
2018-08-25T00:14:01.345Z,98170.00
2018-08-25T00:16:29.767Z,98175.00
2018-08-25T00:18:58.177Z,98183.00
2018-08-25T00:21:26.600Z,98168.00
2018-08-25T00:23:55.010Z,98162.00
2018-08-25T00:26:23.414Z,98162.00
2018-08-25T00:28:51.825Z,98168.00
2018-08-25T00:31:22.932Z,98160.00
2018-08-25T00:33:52.130Z,98166.00
2018-08-25T00:36:20.570Z,98166.00
2018-08-25T00:38:48.979Z,98166.00
2018-08-25T00:41:17.390Z,98173.00
2018-08-25T00:43:45.971Z,98165.00
2018-08-25T00:46:14.629Z,98168.00
2018-08-25T00:48:43.058Z,98173.00
2018-08-25T00:51:11.475Z,98157.00
2018-08-25T00:53:39.909Z,98158.00
2018-08-25T00:56:08.371Z,98162.00
2018-08-25T00:58:36.806Z,98162.00
2018-08-25T01:01:05.438Z,98168.00
2018-08-25T01:03:33.862Z,98169.00
2018-08-25T01:06:02.283Z,98166.00
2018-08-25T01:08:30.726Z,98168.00
2018-08-25T01:10:59.166Z,98161.00
2018-08-25T01:13:27.612Z,98162.00
2018-08-25T01:15:57.034Z,98165.00
2018-08-25T01:18:25.462Z,98157.00
2018-08-25T01:20:53.894Z,98161.00
2018-08-25T01:23:22.556Z,98160.00
2018-08-25T01:25:50.969Z,98161.00
2018-08-25T01:28:19.386Z,98153.00
2018-08-25T01:30:47.826Z,98160.00
2018-08-25T01:33:16.345Z,98160.00
2018-08-25T01:35:44.796Z,98163.00
2018-08-25T01:38:13.222Z,98161.00
2018-08-25T01:40:41.640Z,98153.00
2018-08-25T01:43:10.063Z,98156.00
2018-08-25T01:45:38.605Z,98153.00
2018-08-25T01:48:07.038Z,98147.00
2018-08-25T01:50:35.468Z,98149.00
2018-08-25T01:53:03.910Z,98157.00
2018-08-25T01:55:32.348Z,98159.00
2018-08-25T01:58:00.778Z,98153.00
2018-08-25T02:00:29.205Z,98156.00
2018-08-25T02:02:57.643Z,98150.00
2018-08-25T02:05:29.773Z,98151.00
2018-08-25T02:07:59.683Z,98145.00
2018-08-25T02:10:28.267Z,98144.00
2018-08-25T02:12:56.746Z,98138.00
2018-08-25T02:15:25.203Z,98138.00
2018-08-25T02:17:53.673Z,98148.00
2018-08-25T02:20:22.091Z,98152.00
2018-08-25T02:22:50.514Z,98148.00
2018-08-25T02:25:18.958Z,98153.00
2018-08-25T02:27:47.406Z,98156.00
2018-08-25T02:30:16.031Z,98151.00
2018-08-25T02:32:44.571Z,98149.00
2018-08-25T02:35:12.994Z,98160.00
2018-08-25T02:37:41.417Z,98149.00
2018-08-25T02:40:09.853Z,98144.00
2018-08-25T02:42:38.318Z,98144.00
2018-08-25T02:45:06.744Z,98149.00
2018-08-25T02:47:35.493Z,98140.00
2018-08-25T02:50:03.926Z,98136.00
2018-08-25T02:52:32.463Z,98136.00
2018-08-25T02:55:00.926Z,98147.00
2018-08-25T02:57:29.378Z,98145.00
2018-08-25T02:59:57.798Z,98150.00
2018-08-25T03:02:26.225Z,98149.00
2018-08-25T03:04:54.707Z,98149.00
2018-08-25T03:07:23.138Z,98147.00
2018-08-25T03:09:51.573Z,98151.00
2018-08-25T03:12:19.993Z,98153.00
2018-08-25T03:14:48.495Z,98146.00
2018-08-25T03:17:16.909Z,98140.00
2018-08-25T03:19:45.359Z,98136.00
2018-08-25T03:22:13.799Z,98132.00
2018-08-25T03:24:42.263Z,98136.00
2018-08-25T03:27:10.705Z,98133.00
2018-08-25T03:29:39.141Z,98132.00
2018-08-25T03:32:07.732Z,98138.00
2018-08-25T03:34:36.185Z,98143.00
2018-08-25T03:37:04.614Z,98133.00
2018-08-25T03:39:33.035Z,98138.00
2018-08-25T03:42:01.471Z,98139.00
2018-08-25T03:44:29.894Z,98128.00
2018-08-25T03:46:58.370Z,98134.00
2018-08-25T03:49:26.802Z,98138.00
2018-08-25T03:51:55.225Z,98134.00
2018-08-25T03:54:23.766Z,98134.00
2018-08-25T03:56:52.215Z,98131.00
2018-08-25T03:59:20.702Z,98131.00
2018-08-25T04:01:49.235Z,98130.00
2018-08-25T04:04:17.797Z,98133.00
2018-08-25T04:06:46.241Z,98134.00
2018-08-25T04:09:15.206Z,98139.00
2018-08-25T04:11:43.778Z,98141.00
2018-08-25T04:14:13.195Z,98151.00
2018-08-25T04:16:41.641Z,98146.00
2018-08-25T04:19:19.967Z,98148.00
2018-08-25T04:21:48.997Z,98149.00
2018-08-25T04:24:17.464Z,98146.00
2018-08-25T04:26:46.215Z,98149.00
2018-08-25T04:29:14.867Z,98142.00
2018-08-25T04:31:43.296Z,98155.00
2018-08-25T04:34:11.779Z,98153.00
2018-08-25T04:36:40.238Z,98150.00
2018-08-25T04:39:09.625Z,98159.00
2018-08-25T04:41:38.093Z,98175.00
2018-08-25T04:44:06.878Z,98173.00
2018-08-25T04:46:35.357Z,98161.00
2018-08-25T04:49:03.804Z,98163.00
2018-08-25T04:51:32.323Z,98171.00
2018-08-25T04:54:01.045Z,98170.00
2018-08-25T04:56:29.502Z,98174.00
2018-08-25T04:58:57.950Z,98167.00
2018-08-25T05:01:26.390Z,98154.00
2018-08-25T05:03:54.838Z,98151.00
2018-08-25T05:06:23.420Z,98148.00
2018-08-25T05:08:51.890Z,98151.00
2018-08-25T05:11:20.331Z,98146.00
2018-08-25T05:13:48.921Z,98150.00
2018-08-25T05:16:17.395Z,98151.00
2018-08-25T05:18:45.832Z,98150.00
2018-08-25T05:21:14.349Z,98154.00
2018-08-25T05:23:42.821Z,98142.00
2018-08-25T05:26:11.628Z,98143.00
2018-08-25T05:28:40.091Z,98146.00
2018-08-25T05:31:08.966Z,98145.00
2018-08-25T05:33:37.752Z,98134.00
2018-08-25T05:36:06.199Z,98137.00
2018-08-25T05:38:34.699Z,98142.00
2018-08-25T05:41:03.151Z,98129.00
2018-08-25T05:43:31.609Z,98142.00
2018-08-25T05:46:00.219Z,98139.00
2018-08-25T05:48:28.650Z,98145.00
2018-08-25T05:50:57.109Z,98149.00
2018-08-25T05:53:25.552Z,98143.00
2018-08-25T05:55:54.008Z,98153.00
2018-08-25T05:58:22.534Z,98151.00
2018-08-25T06:00:51.019Z,98157.00
2018-08-25T06:03:19.999Z,98155.00
2018-08-25T06:05:48.456Z,98162.00
2018-08-25T06:08:17.052Z,98166.00
2018-08-25T06:10:45.818Z,98155.00
2018-08-25T06:13:14.618Z,98159.00
2018-08-25T06:15:43.104Z,98164.00
2018-08-25T06:18:11.567Z,98161.00
2018-08-25T06:20:40.002Z,98165.00
2018-08-25T06:23:08.474Z,98162.00
2018-08-25T06:25:36.969Z,98165.00
2018-08-25T06:28:05.547Z,98165.00
2018-08-25T06:30:34.170Z,98162.00
2018-08-25T06:33:02.612Z,98156.00
2018-08-25T06:35:31.076Z,98160.00
2018-08-25T06:37:59.534Z,98161.00
2018-08-25T06:40:27.995Z,98159.00
2018-08-25T06:42:56.450Z,98168.00
2018-08-25T06:45:24.925Z,98163.00
2018-08-25T06:47:53.470Z,98160.00
2018-08-25T06:50:22.279Z,98155.00
2018-08-25T06:52:51.075Z,98149.00
2018-08-25T06:55:21.299Z,98155.00
2018-08-25T06:57:50.753Z,98151.00
2018-08-25T07:00:19.193Z,98156.00
2018-08-25T07:02:47.814Z,98163.00
2018-08-25T07:05:16.250Z,98167.00
2018-08-25T07:07:44.700Z,98169.00
2018-08-25T07:10:13.282Z,98164.00
2018-08-25T07:12:41.897Z,98162.00
2018-08-25T07:15:10.305Z,98161.00
2018-08-25T07:17:38.816Z,98158.00
2018-08-25T07:20:07.312Z,98159.00
2018-08-25T07:22:35.768Z,98154.00
2018-08-25T07:25:04.198Z,98156.00
2018-08-25T07:27:32.701Z,98156.00
2018-08-25T07:30:01.202Z,98156.00
2018-08-25T07:32:31.488Z,98141.00
2018-08-25T07:34:59.998Z,98140.00
2018-08-25T07:42:17.222Z,98139.00
2018-08-25T07:44:46.118Z,98137.00
2018-08-25T07:47:16.128Z,98146.00
2018-08-25T07:49:44.770Z,98143.00
2018-08-25T07:52:13.363Z,98140.00
2018-08-25T07:54:41.812Z,98139.00
2018-08-25T07:57:10.301Z,98138.00
2018-08-25T07:59:39.454Z,98130.00
2018-08-25T08:02:08.335Z,98124.00
2018-08-25T08:04:37.357Z,98131.00
2018-08-25T08:07:05.800Z,98125.00
2018-08-25T08:09:34.325Z,98140.00
2018-08-25T08:12:02.850Z,98129.00
2018-08-25T08:14:31.294Z,98129.00
2018-08-25T08:16:59.794Z,98136.00
2018-08-25T08:19:28.311Z,98136.00
2018-08-25T08:21:57.033Z,98128.00
2018-08-25T08:24:25.740Z,98146.00
2018-08-25T08:26:54.565Z,98132.00
2018-08-25T08:29:23.300Z,98132.00
2018-08-25T08:31:52.057Z,98144.00
2018-08-25T08:34:20.780Z,98134.00
2018-08-25T08:36:49.565Z,98141.00
2018-08-25T08:39:18.414Z,98153.00
2018-08-25T08:41:47.144Z,98143.00
2018-08-25T08:44:15.722Z,98144.00
2018-08-25T08:46:45.021Z,98152.00
2018-08-25T08:49:13.802Z,98151.00
2018-08-25T08:51:42.398Z,98155.00
2018-08-25T08:54:11.042Z,98153.00
2018-08-25T08:56:39.597Z,98150.00
2018-08-25T08:59:08.469Z,98151.00
2018-08-25T09:01:37.157Z,98163.00
2018-08-25T09:04:06.068Z,98169.00
2018-08-25T09:06:35.165Z,98161.00
2018-08-25T09:09:04.733Z,98168.00
2018-08-25T09:11:33.568Z,98167.00
2018-08-25T09:14:02.288Z,98162.00
2018-08-25T09:16:31.047Z,98177.00
2018-08-25T09:18:59.878Z,98170.00
2018-08-25T09:21:28.512Z,98175.00
2018-08-25T09:23:57.284Z,98183.00
2018-08-25T09:26:26.059Z,98184.00
2018-08-25T09:28:54.756Z,98189.00
2018-08-25T09:31:23.758Z,98175.00
2018-08-25T09:33:52.305Z,98193.00
2018-08-25T09:36:22.256Z,98192.00
2018-08-25T09:38:52.373Z,98187.00
2018-08-25T09:41:22.544Z,98188.00
2018-08-25T09:43:51.939Z,98182.00
2018-08-25T09:46:20.764Z,98190.00
2018-08-25T09:48:49.620Z,98188.00
2018-08-25T09:51:18.358Z,98189.00
2018-08-25T09:53:47.164Z,98186.00
2018-08-25T09:56:15.986Z,98183.00
2018-08-25T09:58:44.533Z,98186.00
2018-08-25T10:01:18.756Z,98185.00
2018-08-25T10:03:47.715Z,98192.00
2018-08-25T10:06:16.451Z,98187.00
2018-08-25T10:08:45.337Z,98192.00
2018-08-25T10:11:15.384Z,98186.00
2018-08-25T10:13:44.720Z,98181.00
2018-08-25T10:16:14.144Z,98189.00
2018-08-25T10:18:43.819Z,98184.00
2018-08-25T10:21:13.113Z,98186.00
2018-08-25T10:23:41.945Z,98190.00
2018-08-25T10:26:10.712Z,98187.00
2018-08-25T10:28:39.661Z,98186.00
2018-08-25T10:31:08.451Z,98182.00
2018-08-25T10:33:37.298Z,98173.00
2018-08-25T10:36:06.904Z,98179.00
2018-08-25T10:38:35.645Z,98176.00
2018-08-25T10:41:04.309Z,98178.00
2018-08-25T10:43:33.015Z,98187.00
2018-08-25T10:46:01.700Z,98178.00
2018-08-25T10:48:30.231Z,98176.00
2018-08-25T10:50:58.878Z,98175.00
2018-08-25T10:53:27.724Z,98179.00
2018-08-25T10:55:56.717Z,98186.00
2018-08-25T10:58:25.504Z,98193.00
2018-08-25T11:00:54.304Z,98190.00
2018-08-25T11:03:22.739Z,98194.00
2018-08-25T11:05:52.503Z,98203.00
2018-08-25T11:08:21.268Z,98193.00
2018-08-25T11:10:51.502Z,98204.00
2018-08-25T11:13:20.776Z,98198.00
2018-08-25T11:15:49.704Z,98205.00
2018-08-25T11:18:18.924Z,98191.00
2018-08-25T11:20:47.932Z,98198.00
2018-08-25T11:23:17.593Z,98193.00
2018-08-25T11:25:46.652Z,98202.00
2018-08-25T11:28:15.287Z,98197.00
2018-08-25T11:30:43.971Z,98202.00
2018-08-25T11:33:13.084Z,98198.00
2018-08-25T11:35:41.953Z,98194.00
2018-08-25T11:38:10.712Z,98195.00
2018-08-25T11:40:39.378Z,98203.00
2018-08-25T11:43:08.011Z,98195.00
2018-08-25T11:45:36.993Z,98197.00
2018-08-25T11:48:05.610Z,98206.00
2018-08-25T11:50:34.170Z,98195.00
2018-08-25T11:53:02.757Z,98205.00
2018-08-25T11:55:31.649Z,98229.00
2018-08-25T11:58:00.579Z,98188.00
2018-08-25T12:00:29.407Z,98183.00
2018-08-25T12:02:58.035Z,98188.00
2018-08-25T12:05:26.866Z,98178.00
2018-08-25T12:07:55.643Z,98195.00
2018-08-25T12:10:24.179Z,98180.00
2018-08-25T12:12:53.000Z,98185.00
2018-08-25T12:15:21.626Z,98191.00
2018-08-25T12:17:50.151Z,98187.00
2018-08-25T12:20:18.856Z,98196.00
2018-08-25T12:22:47.531Z,98188.00
2018-08-25T12:25:16.172Z,98183.00
2018-08-25T12:27:44.750Z,98196.00
2018-08-25T12:30:13.875Z,98185.00
2018-08-25T12:32:42.552Z,98194.00
2018-08-25T12:35:11.188Z,98204.00
2018-08-25T12:37:39.942Z,98186.00
2018-08-25T12:40:08.691Z,98185.00
2018-08-25T12:42:37.294Z,98191.00
2018-08-25T12:45:06.046Z,98199.00
2018-08-25T12:47:34.681Z,98196.00
2018-08-25T12:50:03.582Z,98193.00
2018-08-25T12:52:32.444Z,98201.00
2018-08-25T12:55:01.094Z,98199.00
2018-08-25T12:57:30.282Z,98193.00
2018-08-25T12:59:58.939Z,98205.00
2018-08-25T13:02:27.555Z,98202.00
2018-08-25T13:04:56.236Z,98202.00
2018-08-25T13:07:25.057Z,98198.00
2018-08-25T13:09:53.753Z,98202.00
2018-08-25T13:12:22.382Z,98203.00
2018-08-25T13:14:51.160Z,98200.00
2018-08-25T13:17:19.822Z,98201.00
2018-08-25T13:19:48.266Z,98206.00
2018-08-25T13:22:16.803Z,98200.00
2018-08-25T13:24:45.268Z,98204.00
2018-08-25T13:27:13.918Z,98203.00
2018-08-25T13:29:42.454Z,98193.00
2018-08-25T13:33:42.313Z,98187.00
2018-08-25T13:36:10.746Z,98190.00
2018-08-25T13:38:39.192Z,98194.00
2018-08-25T13:41:07.744Z,98185.00
2018-08-25T13:43:36.201Z,98197.00
2018-08-25T13:46:05.600Z,98194.00
2018-08-25T13:48:34.357Z,98187.00
2018-08-25T13:51:02.834Z,98186.00
2018-08-25T13:53:32.993Z,98202.00
2018-08-25T13:56:01.453Z,98204.00
2018-08-25T13:58:29.905Z,98208.00
2018-08-25T14:00:58.401Z,98205.00
2018-08-25T14:03:27.074Z,98207.00
2018-08-25T14:05:55.679Z,98195.00
2018-08-25T14:08:24.441Z,98207.00
2018-08-25T14:10:52.824Z,98214.00
2018-08-25T14:13:21.446Z,98198.00
2018-08-25T14:15:50.208Z,98197.00
2018-08-25T14:18:18.608Z,98191.00
2018-08-25T14:20:47.054Z,98192.00
2018-08-25T14:23:15.539Z,98183.00
2018-08-25T14:25:44.117Z,98196.00
2018-08-25T14:28:12.646Z,98190.00
2018-08-25T14:30:41.583Z,98182.00
2018-08-25T14:33:10.265Z,98185.00
2018-08-25T14:35:39.307Z,98166.00
2018-08-25T14:38:07.873Z,98184.00
2018-08-25T14:40:36.613Z,98173.00
2018-08-25T14:43:05.050Z,98178.00
2018-08-25T14:45:33.492Z,98183.00
2018-08-25T14:48:02.042Z,98197.00
2018-08-25T14:50:30.542Z,98208.00
2018-08-25T14:52:59.125Z,98207.00
2018-08-25T14:55:27.697Z,98213.00
2018-08-25T14:57:56.148Z,98205.00
2018-08-25T15:00:24.626Z,98206.00
2018-08-25T15:02:53.237Z,98196.00
2018-08-25T15:05:22.104Z,98214.00
2018-08-25T15:07:51.596Z,98213.00
2018-08-25T15:10:21.030Z,98217.00
2018-08-25T15:12:49.485Z,98213.00
2018-08-25T15:15:17.869Z,98220.00
2018-08-25T15:17:46.084Z,98223.00
2018-08-25T15:20:14.772Z,98217.00
2018-08-25T15:22:44.154Z,98217.00
2018-08-25T15:25:12.600Z,98229.00
2018-08-25T15:27:40.844Z,98229.00
2018-08-25T15:30:08.992Z,98233.00
2018-08-25T15:32:37.318Z,98243.00
2018-08-25T15:35:05.675Z,98260.00
2018-08-25T15:37:34.056Z,98256.00
2018-08-25T15:40:02.343Z,98248.00
2018-08-25T15:42:30.574Z,98245.00
2018-08-25T15:44:58.751Z,98230.00
2018-08-25T15:47:27.024Z,98229.00
2018-08-25T15:49:55.329Z,98214.00
2018-08-25T15:52:23.784Z,98219.00
2018-08-25T15:54:52.102Z,98212.00
2018-08-25T15:57:20.586Z,98223.00
2018-08-25T15:59:48.980Z,98206.00
2018-08-25T16:02:17.196Z,98199.00
2018-08-25T16:04:45.692Z,98212.00
2018-08-25T16:07:13.863Z,98206.00
2018-08-25T16:09:43.100Z,98209.00
2018-08-25T16:12:11.359Z,98202.00
2018-08-25T16:14:39.775Z,98209.00
2018-08-25T16:17:08.168Z,98208.00
2018-08-25T16:19:36.359Z,98213.00
2018-08-25T16:22:04.787Z,98212.00
2018-08-25T16:24:32.998Z,98209.00
2018-08-25T16:27:01.207Z,98212.00
2018-08-25T16:29:29.480Z,98208.00
2018-08-25T16:31:57.843Z,98211.00
2018-08-25T16:34:26.170Z,98220.00
2018-08-25T16:36:54.376Z,98215.00
2018-08-25T16:39:22.545Z,98212.00
2018-08-25T16:41:51.247Z,98219.00
2018-08-25T16:44:19.423Z,98212.00
2018-08-25T16:46:48.129Z,98219.00
2018-08-25T16:49:16.561Z,98218.00
2018-08-25T16:51:44.721Z,98212.00
2018-08-25T16:54:12.957Z,98209.00
2018-08-25T16:56:41.130Z,98215.00
2018-08-25T16:59:09.747Z,98225.00
2018-08-25T17:01:38.066Z,98214.00
2018-08-25T17:04:06.412Z,98213.00
2018-08-25T17:06:34.713Z,98220.00
2018-08-25T17:09:05.097Z,98217.00
2018-08-25T17:11:33.272Z,98214.00
2018-08-25T17:14:01.438Z,98222.00
2018-08-25T17:16:29.781Z,98228.00
2018-08-25T17:18:57.943Z,98222.00
2018-08-25T17:21:26.159Z,98225.00
2018-08-25T17:23:54.327Z,98226.00
2018-08-25T17:26:22.631Z,98231.00
2018-08-25T17:28:51.073Z,98226.00
2018-08-25T17:31:19.249Z,98228.00
2018-08-25T17:33:47.849Z,98227.00
2018-08-25T17:36:16.083Z,98226.00
2018-08-25T17:38:44.669Z,98234.00
2018-08-25T17:41:12.838Z,98242.00
2018-08-25T17:43:41.020Z,98246.00
2018-08-25T17:46:09.367Z,98241.00
2018-08-25T17:48:37.527Z,98241.00
2018-08-25T17:51:05.890Z,98244.00
2018-08-25T17:53:34.733Z,98247.00
2018-08-25T17:56:03.342Z,98254.00
2018-08-25T17:58:31.512Z,98256.00
2018-08-25T18:00:59.691Z,98263.00
2018-08-25T18:03:28.132Z,98266.00
2018-08-25T18:05:56.689Z,98272.00
2018-08-25T18:08:24.927Z,98271.00
2018-08-25T18:10:53.615Z,98279.00
2018-08-25T18:13:22.065Z,98288.00
2018-08-25T18:15:50.240Z,98282.00
2018-08-25T18:18:18.412Z,98286.00
2018-08-25T18:20:46.576Z,98289.00
2018-08-25T18:23:14.838Z,98287.00
2018-08-25T18:25:43.185Z,98295.00
2018-08-25T18:28:11.599Z,98288.00
2018-08-25T18:30:39.828Z,98301.00
2018-08-25T18:33:08.400Z,98307.00
2018-08-25T18:35:36.569Z,98312.00
2018-08-25T18:38:04.867Z,98309.00
2018-08-25T18:40:33.227Z,98313.00
2018-08-25T18:43:01.392Z,98321.00
2018-08-25T18:45:29.542Z,98320.00
2018-08-25T18:47:57.706Z,98327.00
2018-08-25T18:50:25.892Z,98323.00
2018-08-25T18:52:54.398Z,98323.00
2018-08-25T18:55:22.584Z,98330.00
2018-08-25T18:57:50.769Z,98343.00
2018-08-25T19:00:18.953Z,98343.00
2018-08-25T19:02:47.123Z,98352.00
2018-08-25T19:05:15.316Z,98353.00
2018-08-25T19:07:43.566Z,98344.00
2018-08-25T19:10:12.572Z,98361.00
2018-08-25T19:12:40.812Z,98361.00
2018-08-25T19:15:09.002Z,98360.00
2018-08-25T19:17:37.177Z,98371.00
2018-08-25T19:20:05.345Z,98379.00
2018-08-25T19:22:34.160Z,98381.00
2018-08-25T19:25:02.633Z,98377.00
2018-08-25T19:27:31.100Z,98379.00
2018-08-25T19:29:59.279Z,98381.00
2018-08-25T19:32:27.494Z,98388.00
2018-08-25T19:34:55.882Z,98379.00
2018-08-25T19:37:24.292Z,98393.00
2018-08-25T19:39:52.639Z,98398.00
2018-08-25T19:42:21.133Z,98399.00
2018-08-25T19:44:49.336Z,98401.00
2018-08-25T19:47:17.538Z,98419.00
2018-08-25T19:49:45.741Z,98410.00
2018-08-25T19:52:13.978Z,98415.00
2018-08-25T19:54:42.153Z,98415.00
2018-08-25T19:57:10.316Z,98414.00
2018-08-25T19:59:38.500Z,98424.00
2018-08-25T20:02:06.721Z,98429.00
2018-08-25T20:04:34.919Z,98416.00
2018-08-25T20:07:03.233Z,98424.00
2018-08-25T20:09:31.527Z,98420.00
2018-08-25T20:11:59.771Z,98425.00
2018-08-25T20:14:31.728Z,98419.00
2018-08-25T20:17:00.244Z,98423.00
2018-08-25T20:19:28.441Z,98426.00
2018-08-25T20:21:56.747Z,98430.00
2018-08-25T20:24:25.129Z,98431.00
2018-08-25T20:26:53.502Z,98427.00
2018-08-25T20:29:21.664Z,98427.00
2018-08-25T20:31:49.942Z,98424.00
2018-08-25T20:34:18.116Z,98431.00
2018-08-25T20:36:46.347Z,98431.00
2018-08-25T20:39:14.558Z,98432.00
2018-08-25T20:41:42.764Z,98433.00
2018-08-25T20:44:10.919Z,98427.00
2018-08-25T20:46:39.303Z,98436.00
2018-08-25T20:49:07.489Z,98436.00
2018-08-25T20:51:36.129Z,98439.00
2018-08-25T20:54:04.319Z,98442.00
2018-08-25T20:56:33.266Z,98440.00
2018-08-25T20:59:01.926Z,98446.00
2018-08-25T21:01:30.091Z,98442.00
2018-08-25T21:03:58.329Z,98449.00
2018-08-25T21:06:26.508Z,98451.00
2018-08-25T21:08:54.679Z,98448.00
2018-08-25T21:11:22.963Z,98444.00
2018-08-25T21:13:51.176Z,98449.00
2018-08-25T21:16:19.498Z,98449.00
2018-08-25T21:18:47.826Z,98445.00
2018-08-25T21:21:16.022Z,98454.00
2018-08-25T21:23:44.168Z,98454.00
2018-08-25T21:26:12.313Z,98456.00
2018-08-25T21:28:40.479Z,98458.00
2018-08-25T21:31:08.810Z,98463.00
2018-08-25T21:33:36.969Z,98468.00
2018-08-25T21:36:05.462Z,98467.00
2018-08-25T21:38:33.893Z,98474.00
2018-08-25T21:41:02.093Z,98471.00
2018-08-25T21:43:30.246Z,98477.00
2018-08-25T21:45:58.408Z,98472.00
2018-08-25T21:48:26.566Z,98476.00
2018-08-25T21:50:54.757Z,98488.00
2018-08-25T21:53:23.131Z,98489.00
2018-08-25T21:55:51.287Z,98486.00
2018-08-25T21:58:19.431Z,98486.00
2018-08-25T22:00:53.138Z,98480.00
2018-08-25T22:03:21.293Z,98486.00
2018-08-25T22:05:49.538Z,98491.00
2018-08-25T22:11:02.761Z,98499.00
2018-08-25T22:13:31.020Z,98503.00
2018-08-25T22:15:59.228Z,98499.00
2018-08-25T22:18:27.393Z,98500.00
2018-08-25T22:20:55.556Z,98500.00
2018-08-25T22:23:23.718Z,98496.00
2018-08-25T22:25:51.904Z,98508.00
2018-08-25T22:28:20.080Z,98503.00
2018-08-25T22:30:48.252Z,98507.00
2018-08-25T22:33:16.417Z,98508.00
2018-08-25T22:35:44.581Z,98504.00
2018-08-25T22:38:12.741Z,98508.00
2018-08-25T22:40:40.902Z,98501.00
2018-08-25T22:43:09.073Z,98493.00
2018-08-25T22:45:37.249Z,98494.00
2018-08-25T22:48:05.407Z,98498.00
2018-08-25T22:50:33.563Z,98502.00
2018-08-25T22:53:01.746Z,98509.00
2018-08-25T22:55:29.892Z,98512.00
2018-08-25T22:57:58.049Z,98516.00
2018-08-25T23:00:26.200Z,98512.00
2018-08-25T23:02:54.407Z,98511.00
2018-08-25T23:05:22.572Z,98513.00
2018-08-25T23:07:50.721Z,98510.00
2018-08-25T23:10:18.874Z,98517.00
2018-08-25T23:12:47.155Z,98517.00
2018-08-25T23:15:15.318Z,98516.00
2018-08-25T23:17:43.485Z,98520.00
2018-08-25T23:20:11.648Z,98527.00
2018-08-25T23:22:39.812Z,98521.00
2018-08-25T23:25:07.976Z,98512.00
2018-08-25T23:27:36.141Z,98514.00
2018-08-25T23:30:04.380Z,98514.00
2018-08-25T23:32:32.529Z,98508.00
2018-08-25T23:35:00.696Z,98512.00
2018-08-25T23:37:28.849Z,98519.00
2018-08-25T23:39:57.028Z,98519.00
2018-08-25T23:42:25.194Z,98523.00
2018-08-25T23:44:53.345Z,98523.00
2018-08-25T23:47:21.529Z,98513.00
2018-08-25T23:49:49.683Z,98524.00
2018-08-25T23:52:17.850Z,98521.00
2018-08-25T23:54:46.024Z,98528.00
2018-08-25T23:57:14.193Z,98526.00
2018-08-25T23:59:42.357Z,98526.00
